createdAt,value
2022-12-08T00:01:26.416Z,99887.09
2022-12-08T00:03:55.390Z,99893.87
2022-12-08T00:06:46.815Z,99894.03
2022-12-08T00:09:22.033Z,99892.41
2022-12-08T00:11:53.580Z,99887.25
2022-12-08T00:14:27.268Z,99893.22
2022-12-08T00:16:55.463Z,99892.69
2022-12-08T00:19:23.408Z,99893.31
2022-12-08T00:21:51.449Z,99878.37
2022-12-08T00:24:18.950Z,99891.31
2022-12-08T00:26:47.087Z,99892.81
2022-12-08T00:29:17.594Z,99891.63
2022-12-08T00:31:45.325Z,99889.38
2022-12-08T00:34:14.607Z,99890.19
2022-12-08T00:36:42.177Z,99889.59
2022-12-08T00:39:11.331Z,99887.25
2022-12-08T00:41:57.654Z,99898.56
2022-12-08T00:44:25.441Z,99904.84
2022-12-08T00:46:53.157Z,99901.53
2022-12-08T00:49:20.788Z,99904.19
2022-12-08T00:51:49.496Z,99902.56
2022-12-08T00:54:17.480Z,99894.81
2022-12-08T00:56:44.902Z,99886.34
2022-12-08T00:59:12.316Z,99887.72
2022-12-08T01:01:40.120Z,99894.47
2022-12-08T01:04:10.261Z,99901.91
2022-12-08T01:06:39.199Z,99898.06
2022-12-08T01:09:07.708Z,99895.66
2022-12-08T01:11:35.610Z,99895.22
2022-12-08T01:14:03.453Z,99895.84
2022-12-08T01:16:33.508Z,99895.59
2022-12-08T01:19:01.696Z,99889.22
2022-12-08T01:21:29.152Z,99890.75
2022-12-08T01:23:59.560Z,99901.16
2022-12-08T01:26:26.912Z,99898.44
2022-12-08T01:28:54.671Z,99900.97
2022-12-08T01:31:22.632Z,99894.13
2022-12-08T01:33:50.446Z,99892.81
2022-12-08T01:36:23.521Z,99890.69
2022-12-08T01:38:51.905Z,99896.03
2022-12-08T01:41:22.032Z,99896.59
2022-12-08T01:43:57.056Z,99890.97
2022-12-08T01:46:25.875Z,99888.16
2022-12-08T01:48:57.310Z,99881.78
2022-12-08T01:51:28.378Z,99878.59
2022-12-08T01:53:56.153Z,99879.41
2022-12-08T01:56:32.915Z,99878.16
2022-12-08T01:59:00.671Z,99877.34
2022-12-08T02:01:28.086Z,99882.50
2022-12-08T02:03:59.482Z,99876.75
2022-12-08T02:06:28.990Z,99874.47
2022-12-08T02:08:58.116Z,99867.47
2022-12-08T02:11:25.536Z,99872.28
2022-12-08T02:13:53.403Z,99869.44
2022-12-08T02:16:35.889Z,99859.81
2022-12-08T02:19:30.814Z,99868.81
2022-12-08T02:22:18.057Z,99862.13
2022-12-08T02:25:08.016Z,99871.66
2022-12-08T02:27:54.061Z,99865.69
2022-12-08T02:30:47.614Z,99866.06
2022-12-08T02:33:34.152Z,99876.53
2022-12-08T02:36:16.220Z,99860.03
2022-12-08T02:39:08.677Z,99857.22
2022-12-08T02:41:35.924Z,99857.69
2022-12-08T02:44:18.793Z,99849.25
2022-12-08T02:47:27.751Z,99850.56
2022-12-08T02:49:56.258Z,99848.22
2022-12-08T02:52:23.556Z,99851.38
2022-12-08T02:54:54.182Z,99846.78
2022-12-08T02:57:36.660Z,99852.16
2022-12-08T03:00:08.725Z,99838.12
2022-12-08T03:02:42.701Z,99833.69
2022-12-08T03:05:51.769Z,99840.22
2022-12-08T03:08:37.143Z,99839.22
2022-12-08T03:11:20.309Z,99841.13
2022-12-08T03:13:53.280Z,99844.62
2022-12-08T03:16:23.503Z,99841.25
2022-12-08T03:19:07.003Z,99837.50
2022-12-08T03:21:35.261Z,99822.09
2022-12-08T03:24:05.731Z,99830.78
2022-12-08T03:27:03.677Z,99833.34
2022-12-08T03:29:32.653Z,99837.62
2022-12-08T03:32:06.895Z,99834.84
2022-12-08T03:34:35.416Z,99834.13
2022-12-08T03:37:02.813Z,99831.75
2022-12-08T03:39:30.304Z,99824.81
2022-12-08T03:41:57.981Z,99821.47
2022-12-08T03:44:25.343Z,99814.28
2022-12-08T03:46:52.725Z,99823.72
2022-12-08T03:49:20.383Z,99821.88
2022-12-08T03:51:47.764Z,99812.97
2022-12-08T03:54:15.177Z,99818.56
2022-12-08T03:56:42.854Z,99812.16
2022-12-08T03:59:10.695Z,99811.50
2022-12-08T04:01:38.083Z,99810.78
2022-12-08T04:04:05.854Z,99808.56
2022-12-08T04:06:33.447Z,99803.53
2022-12-08T04:09:01.592Z,99808.72
2022-12-08T04:11:29.252Z,99804.63
2022-12-08T04:13:56.666Z,99804.13
2022-12-08T04:16:25.310Z,99793.59
2022-12-08T04:18:53.015Z,99789.38
2022-12-08T04:21:20.737Z,99795.47
2022-12-08T04:23:48.619Z,99796.06
2022-12-08T04:26:16.565Z,99798.38
2022-12-08T04:28:44.042Z,99799.53
2022-12-08T04:31:11.500Z,99796.28
2022-12-08T04:33:39.312Z,99800.38
2022-12-08T04:36:07.391Z,99795.75
2022-12-08T04:38:34.959Z,99801.28
2022-12-08T04:41:02.691Z,99796.91
2022-12-08T04:43:30.247Z,99802.41
2022-12-08T04:45:57.599Z,99798.16
2022-12-08T04:48:25.678Z,99802.72
2022-12-08T04:50:53.059Z,99792.81
2022-12-08T04:53:21.302Z,99792.12
2022-12-08T04:55:49.754Z,99794.94
2022-12-08T04:58:18.875Z,99790.16
2022-12-08T05:00:47.433Z,99796.59
2022-12-08T05:03:15.585Z,99796.72
2022-12-08T05:05:43.535Z,99795.59
2022-12-08T05:08:11.261Z,99795.94
2022-12-08T05:10:39.327Z,99800.41
2022-12-08T05:13:06.821Z,99800.25
2022-12-08T05:15:34.195Z,99796.84
2022-12-08T05:18:01.868Z,99796.13
2022-12-08T05:20:29.239Z,99800.56
2022-12-08T05:22:56.627Z,99795.00
2022-12-08T05:25:24.374Z,99794.59
2022-12-08T05:27:55.272Z,99790.38
2022-12-08T05:30:29.758Z,99793.25
2022-12-08T05:32:57.513Z,99785.00
2022-12-08T05:35:24.877Z,99774.50
2022-12-08T05:37:53.976Z,99773.47
2022-12-08T05:40:21.652Z,99764.25
2022-12-08T05:42:49.053Z,99778.97
2022-12-08T05:45:16.747Z,99773.44
2022-12-08T05:47:44.455Z,99788.69
2022-12-08T05:50:11.834Z,99788.47
2022-12-08T05:52:39.478Z,99787.28
2022-12-08T05:55:07.044Z,99775.69
2022-12-08T05:57:34.402Z,99781.34
2022-12-08T06:00:02.747Z,99784.78
2022-12-08T06:02:39.637Z,99787.91
2022-12-08T06:05:07.926Z,99781.00
2022-12-08T06:07:35.451Z,99785.66
2022-12-08T06:10:03.666Z,99788.44
2022-12-08T06:12:31.858Z,99777.16
2022-12-08T06:14:59.225Z,99780.19
2022-12-08T06:17:26.581Z,99776.88
2022-12-08T06:19:54.239Z,99781.00
2022-12-08T06:22:21.831Z,99780.53
2022-12-08T06:24:49.303Z,99787.81
2022-12-08T06:27:17.177Z,99791.62
2022-12-08T06:29:44.579Z,99788.81
2022-12-08T06:32:12.073Z,99797.16
2022-12-08T06:34:39.785Z,99796.56
2022-12-08T06:37:07.191Z,99792.88
2022-12-08T06:39:34.575Z,99788.91
2022-12-08T06:42:20.879Z,99805.72
2022-12-08T06:44:48.666Z,99805.63
2022-12-08T06:47:16.463Z,99805.38
2022-12-08T06:49:43.888Z,99803.25
2022-12-08T06:52:11.302Z,99797.28
2022-12-08T06:54:39.112Z,99805.75
2022-12-08T06:57:06.736Z,99803.25
2022-12-08T06:59:34.108Z,99802.59
2022-12-08T07:02:01.859Z,99798.31
2022-12-08T07:04:29.406Z,99800.38
2022-12-08T07:06:56.796Z,99805.44
2022-12-08T07:09:24.751Z,99804.44
2022-12-08T07:11:52.341Z,99805.59
2022-12-08T07:14:23.661Z,99813.28
2022-12-08T07:16:52.301Z,99810.19
2022-12-08T07:19:20.076Z,99815.31
2022-12-08T07:21:47.693Z,99811.37
2022-12-08T07:24:15.366Z,99809.53
2022-12-08T07:26:42.826Z,99803.56
2022-12-08T07:29:10.812Z,99795.75
2022-12-08T07:31:38.549Z,99797.13
2022-12-08T07:34:05.966Z,99792.19
2022-12-08T07:36:33.327Z,99796.56
2022-12-08T07:39:01.068Z,99798.91
2022-12-08T07:41:28.433Z,99786.97
2022-12-08T07:43:56.618Z,99786.13
2022-12-08T07:46:25.473Z,99780.63
2022-12-08T07:48:54.156Z,99779.31
2022-12-08T07:51:21.729Z,99786.94
2022-12-08T07:53:54.067Z,99788.22
2022-12-08T07:56:22.867Z,99797.81
2022-12-08T07:58:50.767Z,99788.81
2022-12-08T08:01:32.377Z,99790.03
2022-12-08T08:04:02.228Z,99792.25
2022-12-08T08:06:30.208Z,99794.16
2022-12-08T08:08:57.668Z,99790.16
2022-12-08T08:11:25.384Z,99789.56
2022-12-08T08:13:52.868Z,99788.53
2022-12-08T08:16:21.053Z,99785.53
2022-12-08T08:18:50.491Z,99783.31
2022-12-08T08:24:07.166Z,99772.31
2022-12-08T08:26:34.744Z,99775.41
2022-12-08T08:29:02.097Z,99782.22
2022-12-08T08:31:29.851Z,99784.97
2022-12-08T08:33:57.377Z,99780.63
2022-12-08T08:36:25.064Z,99784.88
2022-12-08T08:38:52.838Z,99778.84
2022-12-08T08:41:20.512Z,99770.84
2022-12-08T08:43:48.075Z,99772.87
2022-12-08T08:46:16.092Z,99784.75
2022-12-08T08:48:43.558Z,99783.38
2022-12-08T08:51:12.728Z,99773.50
2022-12-08T08:53:40.900Z,99770.91
2022-12-08T08:56:13.288Z,99766.25
2022-12-08T08:58:41.456Z,99761.31
2022-12-08T09:01:08.885Z,99773.75
2022-12-08T09:03:36.287Z,99779.78
2022-12-08T09:06:04.081Z,99791.03
2022-12-08T09:08:31.621Z,99767.44
2022-12-08T09:10:59.237Z,99756.25
2022-12-08T09:13:27.317Z,99757.16
2022-12-08T09:15:54.745Z,99769.00
2022-12-08T09:18:22.171Z,99760.69
2022-12-08T09:20:49.797Z,99763.50
2022-12-08T09:23:17.533Z,99766.59
2022-12-08T09:25:45.687Z,99773.34
2022-12-08T09:28:14.244Z,99768.50
2022-12-08T09:31:00.645Z,99761.12
2022-12-08T09:33:28.412Z,99756.47
2022-12-08T09:35:55.822Z,99748.69
2022-12-08T09:38:23.363Z,99742.00
2022-12-08T09:40:53.352Z,99726.53
2022-12-08T09:43:39.223Z,99728.53
2022-12-08T09:46:11.963Z,99723.84
2022-12-08T09:48:43.082Z,99724.72
2022-12-08T09:51:11.633Z,99724.75
2022-12-08T09:53:45.554Z,99730.56
2022-12-08T09:56:22.479Z,99726.87
2022-12-08T09:59:08.573Z,99709.66
2022-12-08T10:01:41.974Z,99713.66
2022-12-08T10:04:34.287Z,99720.91
2022-12-08T10:07:30.894Z,99726.69
2022-12-08T10:10:17.496Z,99720.13
2022-12-08T10:13:00.227Z,99731.75
2022-12-08T10:15:40.233Z,99716.75
2022-12-08T10:18:15.381Z,99724.19
2022-12-08T10:20:46.367Z,99716.12
2022-12-08T10:23:16.282Z,99716.12
2022-12-08T10:25:47.924Z,99706.81
2022-12-08T10:28:15.581Z,99703.09
2022-12-08T10:30:43.336Z,99692.78
2022-12-08T10:33:18.998Z,99692.09
2022-12-08T10:35:52.458Z,99679.03
2022-12-08T10:38:27.567Z,99680.22
2022-12-08T10:41:01.863Z,99675.22
2022-12-08T10:43:30.151Z,99676.00
2022-12-08T10:46:09.208Z,99659.56
2022-12-08T10:48:37.024Z,99656.06
2022-12-08T10:51:05.723Z,99661.22
2022-12-08T10:53:34.395Z,99648.38
2022-12-08T10:56:01.948Z,99647.53
2022-12-08T10:58:36.129Z,99640.00
2022-12-08T11:01:06.868Z,99636.94
2022-12-08T11:03:37.937Z,99632.06
2022-12-08T11:06:24.188Z,99627.47
2022-12-08T11:08:59.553Z,99630.91
2022-12-08T11:11:47.449Z,99618.47
2022-12-08T11:14:33.242Z,99609.63
2022-12-08T11:17:09.001Z,99603.50
2022-12-08T11:19:41.063Z,99594.09
2022-12-08T11:22:32.593Z,99583.59
2022-12-08T11:25:03.458Z,99580.16
2022-12-08T11:27:32.973Z,99569.50
2022-12-08T11:30:01.397Z,99572.38
2022-12-08T11:32:28.890Z,99566.72
2022-12-08T11:35:00.910Z,99564.63
2022-12-08T11:37:34.668Z,99555.34
2022-12-08T11:40:07.788Z,99560.38
2022-12-08T11:42:40.637Z,99559.75
2022-12-08T11:45:14.093Z,99551.16
2022-12-08T11:47:54.131Z,99552.13
2022-12-08T11:50:34.163Z,99547.94
2022-12-08T11:53:01.763Z,99542.84
2022-12-08T11:55:37.210Z,99544.31
2022-12-08T11:58:38.882Z,99547.97
2022-12-08T12:01:17.209Z,99551.81
2022-12-08T12:03:54.000Z,99545.75
2022-12-08T12:06:54.773Z,99550.09
2022-12-08T12:09:34.741Z,99542.47
2022-12-08T12:12:16.760Z,99535.25
2022-12-08T12:15:02.858Z,99531.50
2022-12-08T12:17:36.564Z,99546.72
2022-12-08T12:20:12.434Z,99538.56
2022-12-08T12:22:40.215Z,99540.78
2022-12-08T12:25:17.981Z,99543.13
2022-12-08T12:27:46.006Z,99542.84
2022-12-08T12:30:34.471Z,99541.75
2022-12-08T12:33:02.324Z,99548.06
2022-12-08T12:35:29.961Z,99546.03
2022-12-08T12:38:04.797Z,99549.13
2022-12-08T12:40:39.895Z,99543.37
2022-12-08T12:43:10.293Z,99533.59
2022-12-08T12:45:43.865Z,99527.75
2022-12-08T12:48:22.200Z,99528.03
2022-12-08T12:50:51.126Z,99516.47
2022-12-08T12:53:19.028Z,99514.03
2022-12-08T12:55:46.849Z,99523.78
2022-12-08T12:58:23.710Z,99518.13
2022-12-08T13:01:14.099Z,99508.28
2022-12-08T13:03:48.570Z,99504.06
2022-12-08T13:06:23.483Z,99514.81
2022-12-08T13:08:53.529Z,99505.44
2022-12-08T13:11:21.607Z,99494.84
2022-12-08T13:14:01.396Z,99487.44
2022-12-08T13:16:35.047Z,99493.53
2022-12-08T13:19:14.060Z,99484.44
2022-12-08T13:21:42.263Z,99484.44
2022-12-08T13:24:25.266Z,99481.31
2022-12-08T13:27:16.336Z,99484.13
2022-12-08T13:29:44.140Z,99488.22
2022-12-08T13:32:11.829Z,99484.91
2022-12-08T13:34:50.700Z,99482.09
2022-12-08T13:37:56.915Z,99487.84
2022-12-08T13:40:26.234Z,99495.81
2022-12-08T13:43:06.599Z,99496.53
2022-12-08T13:57:30.676Z,99486.03
2022-12-08T14:00:16.034Z,99488.38
2022-12-08T14:02:48.254Z,99492.97
2022-12-08T14:05:20.467Z,99483.37
2022-12-08T14:07:51.766Z,99481.97
2022-12-08T14:10:22.574Z,99484.31
2022-12-08T14:12:56.364Z,99483.75
2022-12-08T14:15:25.387Z,99491.72
2022-12-08T14:17:57.335Z,99497.50
2022-12-08T14:20:30.177Z,99499.00
2022-12-08T14:22:59.442Z,99499.63
2022-12-08T14:25:28.228Z,99504.47
2022-12-08T14:27:59.926Z,99499.72
2022-12-08T14:30:32.835Z,99494.31
2022-12-08T14:33:01.535Z,99493.13
2022-12-08T14:35:37.528Z,99499.97
2022-12-08T14:38:09.901Z,99492.78
2022-12-08T14:40:39.847Z,99490.47
2022-12-08T14:43:10.377Z,99498.69
2022-12-08T14:45:41.309Z,99495.16
2022-12-08T14:48:26.848Z,99498.25
2022-12-08T14:51:04.821Z,99496.34
2022-12-08T14:53:39.742Z,99492.81
2022-12-08T14:56:26.082Z,99486.22
2022-12-08T14:59:13.199Z,99487.31
2022-12-08T15:01:42.300Z,99492.63
2022-12-08T15:04:12.672Z,99480.13
2022-12-08T15:06:57.953Z,99483.13
2022-12-08T15:09:38.661Z,99470.28
2022-12-08T15:12:07.081Z,99479.75
2022-12-08T15:14:37.142Z,99480.81
2022-12-08T15:17:23.917Z,99481.81
2022-12-08T15:19:59.105Z,99476.47
2022-12-08T15:22:29.505Z,99466.47
2022-12-08T15:24:57.569Z,99472.78
2022-12-08T15:27:25.690Z,99472.19
2022-12-08T15:29:53.631Z,99474.41
2022-12-08T15:32:23.125Z,99478.97
2022-12-08T15:34:50.568Z,99484.34
2022-12-08T15:37:28.046Z,99469.44
2022-12-08T15:39:55.774Z,99470.31
2022-12-08T15:42:23.177Z,99459.97
2022-12-08T15:44:50.589Z,99460.78
2022-12-08T15:47:20.832Z,99465.84
2022-12-08T15:49:49.728Z,99461.84
2022-12-08T15:52:20.283Z,99456.69
2022-12-08T15:54:49.102Z,99451.47
2022-12-08T15:58:17.128Z,99451.66
2022-12-08T16:00:51.235Z,99452.53
2022-12-08T16:03:59.734Z,99471.28
2022-12-08T16:07:26.831Z,99467.69
2022-12-08T16:09:13.117Z,99475.19
2022-12-08T16:12:09.105Z,99466.19
2022-12-08T16:17:28.270Z,99462.91
2022-12-08T16:19:56.166Z,99456.06
2022-12-08T16:25:19.936Z,99453.69
2022-12-08T16:28:29.518Z,99450.66
2022-12-08T16:30:38.994Z,99432.88
2022-12-08T16:33:06.905Z,99434.00
2022-12-08T16:35:34.836Z,99440.56
2022-12-08T16:38:05.328Z,99449.88
2022-12-08T16:40:32.838Z,99457.31
2022-12-08T16:43:00.512Z,99457.69
2022-12-08T16:45:30.076Z,99460.53
2022-12-08T16:48:00.155Z,99463.38
2022-12-08T16:50:33.533Z,99458.91
2022-12-08T16:53:06.987Z,99461.13
2022-12-08T16:55:35.758Z,99462.31
2022-12-08T16:58:03.735Z,99460.37
2022-12-08T17:00:37.369Z,99456.22
2022-12-08T17:03:08.469Z,99458.41
2022-12-08T17:05:36.153Z,99464.59
2022-12-08T17:08:03.700Z,99464.44
2022-12-08T17:10:34.430Z,99458.59
2022-12-08T17:13:02.516Z,99460.19
2022-12-08T17:15:30.014Z,99472.59
2022-12-08T17:17:58.104Z,99472.16
2022-12-08T17:20:27.421Z,99467.81
2022-12-08T17:22:57.483Z,99461.78
2022-12-08T17:25:26.661Z,99449.38
2022-12-08T17:27:54.881Z,99458.22
2022-12-08T17:30:22.435Z,99444.75
2022-12-08T17:32:52.714Z,99447.75
2022-12-08T17:35:20.621Z,99450.78
2022-12-08T17:37:48.605Z,99444.22
2022-12-08T17:40:16.913Z,99443.34
2022-12-08T17:42:45.201Z,99443.50
2022-12-08T17:45:12.739Z,99439.75
2022-12-08T17:47:40.580Z,99435.66
2022-12-08T17:50:08.938Z,99427.53
2022-12-08T17:52:37.633Z,99431.19
2022-12-08T17:55:07.384Z,99441.72
2022-12-08T17:57:35.317Z,99429.13
2022-12-08T18:00:04.015Z,99427.53
2022-12-08T18:02:39.586Z,99433.03
2022-12-08T18:05:08.815Z,99435.56
2022-12-08T18:07:37.818Z,99441.91
2022-12-08T18:10:08.111Z,99448.19
2022-12-08T18:12:36.430Z,99449.84
2022-12-08T18:15:07.424Z,99452.19
2022-12-08T18:17:35.407Z,99458.03
2022-12-08T18:20:04.279Z,99451.50
2022-12-08T18:22:32.612Z,99454.59
2022-12-08T18:25:00.175Z,99461.97
2022-12-08T18:27:28.746Z,99454.84
2022-12-08T18:29:56.978Z,99461.59
2022-12-08T18:32:24.825Z,99463.19
2022-12-08T18:34:54.334Z,99469.09
2022-12-08T18:37:22.392Z,99457.63
2022-12-08T18:39:51.885Z,99467.06
2022-12-08T18:42:23.416Z,99455.50
2022-12-08T18:44:53.704Z,99446.06
2022-12-08T18:47:23.429Z,99449.19
2022-12-08T18:49:51.812Z,99451.13
2022-12-08T18:52:28.138Z,99458.28
2022-12-08T18:55:07.807Z,99456.81
2022-12-08T18:57:38.898Z,99452.22
2022-12-08T19:00:10.163Z,99452.50
2022-12-08T19:02:39.072Z,99450.44
2022-12-08T19:05:08.570Z,99453.38
2022-12-08T19:07:40.105Z,99451.19
2022-12-08T19:10:10.066Z,99449.34
2022-12-08T19:12:38.694Z,99436.00
2022-12-08T19:15:07.532Z,99442.19
2022-12-08T19:17:37.191Z,99449.81
2022-12-08T19:20:07.487Z,99452.78
2022-12-08T19:22:35.746Z,99450.88
2022-12-08T19:25:05.092Z,99445.91
2022-12-08T19:27:34.642Z,99446.88
2022-12-08T19:30:03.720Z,99446.47
2022-12-08T19:32:32.180Z,99455.78
2022-12-08T19:35:00.752Z,99456.09
2022-12-08T19:37:29.914Z,99448.22
2022-12-08T19:40:17.065Z,99461.56
2022-12-08T19:43:05.918Z,99455.59
2022-12-08T19:45:36.093Z,99455.19
2022-12-08T19:48:05.729Z,99444.69
2022-12-08T19:50:36.811Z,99452.03
2022-12-08T19:53:17.349Z,99447.28
2022-12-08T19:55:45.795Z,99447.78
2022-12-08T19:58:16.680Z,99449.66
2022-12-08T20:00:47.188Z,99445.94
2022-12-08T20:03:20.544Z,99438.53
2022-12-08T20:05:50.992Z,99432.16
2022-12-08T20:08:20.043Z,99430.22
2022-12-08T20:10:48.728Z,99434.19
2022-12-08T20:13:36.381Z,99428.34
2022-12-08T20:16:05.724Z,99426.12
2022-12-08T20:18:38.626Z,99429.13
2022-12-08T20:21:07.280Z,99420.56
2022-12-08T20:23:38.503Z,99438.34
2022-12-08T20:26:10.589Z,99430.31
2022-12-08T20:28:39.712Z,99435.78
2022-12-08T20:31:09.057Z,99432.72
2022-12-08T20:33:37.207Z,99431.66
2022-12-08T20:36:07.822Z,99430.84
2022-12-08T20:38:37.111Z,99428.25
2022-12-08T20:41:10.796Z,99429.41
2022-12-08T20:43:39.962Z,99429.19
2022-12-08T20:46:11.302Z,99434.81
2022-12-08T20:48:40.678Z,99432.84
2022-12-08T20:51:13.698Z,99439.59
2022-12-08T20:53:42.128Z,99442.19
2022-12-08T20:56:17.885Z,99453.63
2022-12-08T20:58:46.410Z,99460.09
2022-12-08T21:01:18.294Z,99457.53
2022-12-08T21:03:47.627Z,99456.22
2022-12-08T21:06:16.412Z,99458.50
2022-12-08T21:08:43.947Z,99448.84
2022-12-08T21:11:12.834Z,99450.34
2022-12-08T21:13:40.769Z,99451.78
2022-12-08T21:16:14.334Z,99451.13
2022-12-08T21:18:42.300Z,99445.22
2022-12-08T21:21:14.394Z,99445.22
2022-12-08T21:23:43.287Z,99440.00
2022-12-08T21:26:23.274Z,99435.13
2022-12-08T21:28:51.230Z,99422.56
2022-12-08T21:31:20.222Z,99434.47
2022-12-08T21:33:48.537Z,99436.00
2022-12-08T21:36:20.055Z,99429.06
2022-12-08T21:38:47.987Z,99432.66
2022-12-08T21:41:39.128Z,99432.75
2022-12-08T21:44:09.576Z,99439.53
2022-12-08T21:46:37.678Z,99436.37
2022-12-08T21:49:05.405Z,99439.25
2022-12-08T21:51:35.100Z,99439.09
2022-12-08T21:54:03.037Z,99429.19
2022-12-08T21:56:30.482Z,99437.28
2022-12-08T21:58:58.033Z,99437.09
2022-12-08T22:01:25.810Z,99438.41
2022-12-08T22:03:54.339Z,99434.59
2022-12-08T22:06:22.100Z,99435.41
2022-12-08T22:08:49.649Z,99440.06
2022-12-08T22:11:18.036Z,99435.97
2022-12-08T22:13:45.437Z,99438.94
2022-12-08T22:16:14.989Z,99438.09
2022-12-08T22:18:42.858Z,99435.13
2022-12-08T22:21:11.786Z,99429.63
2022-12-08T22:23:39.296Z,99441.00
2022-12-08T22:26:08.361Z,99436.72
2022-12-08T22:28:39.023Z,99446.16
2022-12-08T22:31:16.790Z,99437.87
2022-12-08T22:33:44.763Z,99451.72
2022-12-08T22:36:21.743Z,99452.16
2022-12-08T22:38:49.919Z,99439.00
2022-12-08T22:41:18.452Z,99439.59
2022-12-08T22:43:47.004Z,99434.94
2022-12-08T22:46:23.371Z,99442.41
2022-12-08T22:48:51.860Z,99447.84
2022-12-08T22:51:19.471Z,99444.22
2022-12-08T22:53:47.495Z,99443.81
2022-12-08T22:56:18.117Z,99432.78
2022-12-08T22:58:45.775Z,99435.00
2022-12-08T23:01:29.279Z,99433.50
2022-12-08T23:03:57.773Z,99434.69
2022-12-08T23:06:26.500Z,99432.78
2022-12-08T23:08:54.359Z,99440.91
2022-12-08T23:11:24.750Z,99440.00
2022-12-08T23:13:52.254Z,99442.66
2022-12-08T23:16:19.730Z,99438.50
2022-12-08T23:18:47.842Z,99448.97
2022-12-08T23:21:17.805Z,99436.41
2022-12-08T23:23:45.646Z,99435.09
2022-12-08T23:26:27.620Z,99439.69
2022-12-08T23:28:56.379Z,99428.44
2022-12-08T23:31:24.859Z,99437.09
2022-12-08T23:33:52.959Z,99436.97
2022-12-08T23:36:21.678Z,99446.81
2022-12-08T23:38:49.541Z,99443.69
2022-12-08T23:41:17.307Z,99435.59
2022-12-08T23:43:46.398Z,99430.37
2022-12-08T23:46:15.824Z,99423.41
2022-12-08T23:48:43.734Z,99416.72
2022-12-08T23:51:12.124Z,99421.19
2022-12-08T23:53:40.164Z,99409.59
2022-12-08T23:56:09.858Z,99413.22
2022-12-08T23:58:37.764Z,99410.88
